createdAt,value
2018-09-21T00:00:29.398Z,1001.75
2018-09-21T00:01:29.401Z,1001.72
2018-09-21T00:02:29.394Z,1001.70
2018-09-21T00:03:29.390Z,1001.71
2018-09-21T00:04:29.388Z,1001.62
2018-09-21T00:05:29.379Z,1001.64
2018-09-21T00:06:29.378Z,1001.60
2018-09-21T00:07:29.372Z,1001.63
2018-09-21T00:08:29.371Z,1001.55
2018-09-21T00:09:29.372Z,1001.59
2018-09-21T00:10:29.365Z,1001.55
2018-09-21T00:11:29.363Z,1001.59
2018-09-21T00:12:29.359Z,1001.51
2018-09-21T00:13:29.359Z,1001.53
2018-09-21T00:14:29.354Z,1001.47
2018-09-21T00:15:29.344Z,1001.51
2018-09-21T00:16:29.344Z,1001.46
2018-09-21T00:17:29.344Z,1001.48
2018-09-21T00:18:29.338Z,1001.42
2018-09-21T00:19:29.333Z,1001.41
2018-09-21T00:20:29.324Z,1001.35
2018-09-21T00:21:29.322Z,1001.32
2018-09-21T00:22:29.318Z,1001.30
2018-09-21T00:23:29.318Z,1001.29
2018-09-21T00:24:29.312Z,1001.27
2018-09-21T00:25:29.309Z,1001.30
2018-09-21T00:26:29.306Z,1001.29
2018-09-21T00:27:29.299Z,1001.27
2018-09-21T00:28:29.298Z,1001.25
2018-09-21T00:29:29.292Z,1001.23
2018-09-21T00:30:29.294Z,1001.26
2018-09-21T00:31:29.289Z,1001.15
2018-09-21T00:32:29.280Z,1001.13
2018-09-21T00:33:29.278Z,1001.21
2018-09-21T00:34:29.274Z,1001.13
2018-09-21T00:35:29.271Z,1001.19
2018-09-21T00:36:29.270Z,1001.14
2018-09-21T00:37:29.271Z,1001.09
2018-09-21T00:38:29.262Z,1001.10
2018-09-21T00:39:29.254Z,1001.10
2018-09-21T00:40:29.256Z,1001.09
2018-09-21T00:41:29.247Z,1001.11
2018-09-21T00:42:29.245Z,1001.06
2018-09-21T00:43:29.239Z,1001.10
2018-09-21T00:44:29.239Z,1001.03
2018-09-21T00:45:29.234Z,1001.09
2018-09-21T00:46:29.232Z,1001.03
2018-09-21T00:47:29.227Z,1001.07
2018-09-21T00:48:29.220Z,1001.07
2018-09-21T00:49:29.218Z,1001.06
2018-09-21T00:50:29.211Z,1000.98
2018-09-21T00:51:29.218Z,1001.01
2018-09-21T00:52:29.208Z,1000.95
2018-09-21T00:53:29.199Z,1000.96
2018-09-21T00:54:29.198Z,1001.01
2018-09-21T00:55:29.189Z,1000.95
2018-09-21T00:56:29.193Z,1000.93
2018-09-21T00:57:29.197Z,1000.99
2018-09-21T00:58:29.183Z,1000.98
2018-09-21T00:59:29.178Z,1000.91
2018-09-21T01:00:29.173Z,1000.89
2018-09-21T01:01:29.173Z,1000.90
2018-09-21T01:02:29.166Z,1000.86
2018-09-21T01:03:29.159Z,1000.78
2018-09-21T01:04:29.158Z,1000.80
2018-09-21T01:05:29.154Z,1000.76
2018-09-21T01:06:29.148Z,1000.73
2018-09-21T01:07:29.152Z,1000.75
2018-09-21T01:08:29.142Z,1000.76
2018-09-21T01:09:29.199Z,1000.74
2018-09-21T01:10:29.139Z,1000.67
2018-09-21T01:11:29.133Z,1000.70
2018-09-21T01:12:29.130Z,1000.71
2018-09-21T01:13:29.127Z,1000.71
2018-09-21T01:14:29.130Z,1000.62
2018-09-21T01:15:29.122Z,1000.62
2018-09-21T01:16:29.112Z,1000.61
2018-09-21T01:17:29.106Z,1000.62
2018-09-21T01:18:29.105Z,1000.57
2018-09-21T01:19:29.099Z,1000.58
2018-09-21T01:20:29.107Z,1000.50
2018-09-21T01:21:29.103Z,1000.52
2018-09-21T01:22:29.090Z,1000.50
2018-09-21T01:23:29.088Z,1000.48
2018-09-21T01:24:29.078Z,1000.44
2018-09-21T01:25:29.077Z,1000.43
2018-09-21T01:26:29.078Z,1000.41
2018-09-21T01:27:29.065Z,1000.41
2018-09-21T01:28:29.067Z,1000.42
2018-09-21T01:29:29.060Z,1000.37
2018-09-21T01:30:29.060Z,1000.40
2018-09-21T01:31:29.051Z,1000.38
2018-09-21T01:32:29.047Z,1000.34
2018-09-21T01:33:29.054Z,1000.31
2018-09-21T01:34:29.047Z,1000.31
2018-09-21T01:35:29.038Z,1000.35
2018-09-21T01:36:29.029Z,1000.30
2018-09-21T01:37:29.028Z,1000.31
2018-09-21T01:38:29.023Z,1000.33
2018-09-21T01:39:29.019Z,1000.29
2018-09-21T01:40:29.019Z,1000.29
2018-09-21T01:41:29.015Z,1000.28
2018-09-21T01:42:29.012Z,1000.23
2018-09-21T01:43:29.009Z,1000.27
2018-09-21T01:44:29.003Z,1000.17
2018-09-21T01:45:28.999Z,1000.19
2018-09-21T01:46:28.993Z,1000.19
2018-09-21T01:47:28.986Z,1000.18
2018-09-21T01:48:28.983Z,1000.15
2018-09-21T01:49:28.994Z,1000.15
2018-09-21T01:50:28.994Z,1000.17
2018-09-21T01:51:28.974Z,1000.16
2018-09-21T01:52:28.968Z,1000.08
2018-09-21T01:53:28.964Z,1000.03
2018-09-21T01:54:28.965Z,1000.06
2018-09-21T01:55:28.953Z,1000.07
2018-09-21T01:56:28.952Z,1000.06
2018-09-21T01:57:28.951Z,1000.00
2018-09-21T01:58:28.944Z,999.99
2018-09-21T01:59:28.943Z,1000.00
2018-09-21T02:00:28.936Z,999.94
2018-09-21T02:01:28.931Z,999.94
2018-09-21T02:02:28.929Z,999.94
2018-09-21T02:03:28.924Z,999.89
2018-09-21T02:04:28.925Z,999.85
2018-09-21T02:05:28.920Z,999.85
2018-09-21T02:06:28.917Z,999.89
2018-09-21T02:07:28.905Z,999.78
2018-09-21T02:08:28.904Z,999.75
2018-09-21T02:09:28.914Z,999.71
2018-09-21T02:10:28.900Z,999.72
2018-09-21T02:11:28.903Z,999.73
2018-09-21T02:12:28.892Z,999.65
2018-09-21T02:13:28.888Z,999.66
2018-09-21T02:14:28.879Z,999.64
2018-09-21T02:15:28.872Z,999.67
2018-09-21T02:16:28.873Z,999.62
2018-09-21T02:17:28.885Z,999.62
2018-09-21T02:18:28.865Z,999.63
2018-09-21T02:19:28.869Z,999.64
2018-09-21T02:20:28.886Z,999.64
2018-09-21T02:21:28.850Z,999.65
2018-09-21T02:22:28.844Z,999.57
2018-09-21T02:23:28.843Z,999.59
2018-09-21T02:24:28.840Z,999.52
2018-09-21T02:25:28.833Z,999.54
2018-09-21T02:26:28.836Z,999.55
2018-09-21T02:27:28.825Z,999.52
2018-09-21T02:28:28.824Z,999.54
2018-09-21T02:29:28.820Z,999.50
2018-09-21T02:30:28.814Z,999.50
2018-09-21T02:31:28.819Z,999.46
2018-09-21T02:32:28.809Z,999.47
2018-09-21T02:33:28.811Z,999.48
2018-09-21T02:34:28.799Z,999.40
2018-09-21T02:35:28.792Z,999.42
2018-09-21T02:36:28.792Z,999.38
2018-09-21T02:37:28.786Z,999.34
2018-09-21T02:38:28.779Z,999.32
2018-09-21T02:39:28.779Z,999.27
2018-09-21T02:40:28.771Z,999.23
2018-09-21T02:41:28.865Z,999.24
2018-09-21T02:42:28.769Z,999.21
2018-09-21T02:43:28.763Z,999.20
2018-09-21T02:44:28.761Z,999.24
2018-09-21T02:45:28.756Z,999.14
2018-09-21T02:46:28.759Z,999.12
2018-09-21T02:47:28.745Z,999.10
2018-09-21T02:48:28.743Z,999.12
2018-09-21T02:49:28.737Z,999.08
2018-09-21T02:50:28.734Z,999.03
2018-09-21T02:51:28.731Z,998.97
2018-09-21T02:52:28.721Z,998.97
2018-09-21T02:53:28.722Z,998.97
2018-09-21T02:54:28.715Z,999.01
2018-09-21T02:55:28.715Z,998.93
2018-09-21T02:56:28.706Z,998.90
2018-09-21T02:57:28.702Z,998.89
2018-09-21T02:58:28.705Z,998.83
2018-09-21T02:59:28.694Z,998.81
2018-09-21T03:00:28.770Z,998.73
2018-09-21T03:01:28.687Z,998.72
2018-09-21T03:02:28.684Z,998.66
2018-09-21T03:03:28.682Z,998.62
2018-09-21T03:04:28.673Z,998.61
2018-09-21T03:05:28.679Z,998.59
2018-09-21T03:06:28.670Z,998.52
2018-09-21T03:07:28.666Z,998.48
2018-09-21T03:08:28.664Z,998.39
2018-09-21T03:09:28.657Z,998.41
2018-09-21T03:10:28.654Z,998.38
2018-09-21T03:11:28.644Z,998.41
2018-09-21T03:12:28.639Z,998.40
2018-09-21T03:13:28.635Z,998.41
2018-09-21T03:14:28.634Z,998.41
2018-09-21T03:15:28.630Z,998.37
2018-09-21T03:16:28.624Z,998.38
2018-09-21T03:17:28.623Z,998.35
2018-09-21T03:18:28.621Z,998.34
2018-09-21T03:19:28.619Z,998.38
2018-09-21T03:20:28.606Z,998.31
2018-09-21T03:21:28.609Z,998.34
2018-09-21T03:22:28.614Z,998.35
2018-09-21T03:23:28.612Z,998.31
2018-09-21T03:24:28.597Z,998.28
2018-09-21T03:25:28.596Z,998.30
2018-09-21T03:26:28.590Z,998.34
2018-09-21T03:27:28.580Z,998.28
2018-09-21T03:28:28.576Z,998.21
2018-09-21T03:29:28.580Z,998.22
2018-09-21T03:30:28.574Z,998.13
2018-09-21T03:31:28.563Z,998.12
2018-09-21T03:32:28.566Z,998.13
2018-09-21T03:33:28.565Z,998.03
2018-09-21T03:34:28.553Z,998.05
2018-09-21T03:35:28.549Z,997.95
2018-09-21T03:36:28.565Z,997.88
2018-09-21T03:37:28.548Z,997.85
2018-09-21T03:38:28.545Z,997.84
2018-09-21T03:39:28.531Z,997.81
2018-09-21T03:40:28.530Z,997.75
2018-09-21T03:41:28.522Z,997.79
2018-09-21T03:42:28.528Z,997.75
2018-09-21T03:43:28.544Z,997.74
2018-09-21T03:44:28.520Z,997.71
2018-09-21T03:45:28.516Z,997.66
2018-09-21T03:46:28.509Z,997.69
2018-09-21T03:47:28.509Z,997.69
2018-09-21T03:48:28.494Z,997.62
2018-09-21T03:49:28.494Z,997.58
2018-09-21T03:50:28.487Z,997.45
2018-09-21T03:51:28.482Z,997.43
2018-09-21T03:52:28.484Z,997.39
2018-09-21T03:53:28.474Z,997.51
2018-09-21T03:54:28.471Z,997.44
2018-09-21T03:55:28.466Z,997.39
2018-09-21T03:56:28.471Z,997.43
2018-09-21T03:57:28.469Z,997.40
2018-09-21T03:58:56.454Z,997.41
2018-09-21T03:59:28.454Z,997.42
2018-09-21T04:00:28.444Z,997.33
2018-09-21T04:01:28.449Z,997.30
2018-09-21T04:02:28.452Z,997.26
2018-09-21T04:03:28.434Z,997.19
2018-09-21T04:04:28.434Z,997.19
2018-09-21T04:05:28.435Z,997.19
2018-09-21T04:06:28.426Z,997.13
2018-09-21T04:07:28.429Z,997.18
2018-09-21T04:08:28.414Z,997.12
2018-09-21T04:09:28.411Z,997.19
2018-09-21T04:10:28.410Z,997.08
2018-09-21T04:11:28.404Z,997.07
2018-09-21T04:12:28.400Z,996.97
2018-09-21T04:13:28.395Z,996.97
2018-09-21T04:14:28.392Z,996.98
2018-09-21T04:15:28.384Z,996.92
2018-09-21T04:16:28.384Z,996.92
2018-09-21T04:17:28.376Z,997.00
2018-09-21T04:18:28.379Z,996.93
2018-09-21T04:19:28.375Z,996.92
2018-09-21T04:20:28.369Z,996.81
2018-09-21T04:21:28.364Z,996.83
2018-09-21T04:22:28.361Z,996.82
2018-09-21T04:23:28.363Z,996.84
2018-09-21T04:24:28.350Z,996.77
2018-09-21T04:25:28.347Z,996.79
2018-09-21T04:26:28.349Z,996.71
2018-09-21T04:27:28.342Z,996.82
2018-09-21T04:28:28.343Z,996.85
2018-09-21T04:29:28.330Z,996.93
2018-09-21T04:30:28.338Z,996.80
2018-09-21T04:31:28.327Z,996.79
2018-09-21T04:32:28.318Z,996.83
2018-09-21T04:33:28.314Z,996.81
2018-09-21T04:34:28.315Z,996.84
2018-09-21T04:35:28.311Z,996.76
2018-09-21T04:36:28.302Z,996.70
2018-09-21T04:37:28.304Z,996.63
2018-09-21T04:38:28.299Z,996.73
2018-09-21T04:39:28.291Z,996.66
2018-09-21T04:40:28.291Z,996.70
2018-09-21T04:41:28.287Z,996.66
2018-09-21T04:42:28.279Z,996.65
2018-09-21T04:43:28.279Z,996.69
2018-09-21T04:44:28.271Z,996.69
2018-09-21T04:45:28.272Z,996.62
2018-09-21T04:46:28.263Z,996.57
2018-09-21T04:47:28.264Z,996.58
2018-09-21T04:48:28.265Z,996.51
2018-09-21T04:49:28.264Z,996.47
2018-09-21T04:50:28.258Z,996.46
2018-09-21T04:51:28.243Z,996.55
2018-09-21T04:52:28.260Z,996.41
2018-09-21T04:53:28.237Z,996.43
2018-09-21T04:54:28.241Z,996.46
2018-09-21T04:55:28.235Z,996.40
2018-09-21T04:56:28.226Z,996.37
2018-09-21T04:57:28.227Z,996.40
2018-09-21T04:58:28.220Z,996.44
2018-09-21T04:59:28.220Z,996.39
2018-09-21T05:00:28.209Z,996.33
2018-09-21T05:01:28.209Z,996.38
2018-09-21T05:02:28.203Z,996.30
2018-09-21T05:03:28.197Z,996.31
2018-09-21T05:04:28.194Z,996.32
2018-09-21T05:05:28.193Z,996.39
2018-09-21T05:06:28.192Z,996.37
2018-09-21T05:07:28.183Z,996.33
2018-09-21T05:08:28.182Z,996.26
2018-09-21T05:09:28.200Z,996.28
2018-09-21T05:10:28.179Z,996.26
2018-09-21T05:11:28.175Z,996.23
2018-09-21T05:12:28.174Z,996.25
2018-09-21T05:13:28.170Z,996.24
2018-09-21T05:14:28.170Z,996.36
2018-09-21T05:15:28.156Z,996.30
2018-09-21T05:16:28.154Z,996.25
2018-09-21T05:17:28.154Z,996.03
2018-09-21T05:18:28.146Z,996.20
2018-09-21T05:19:28.146Z,996.31
2018-09-21T05:20:28.136Z,996.21
2018-09-21T05:21:28.138Z,996.18
2018-09-21T05:22:28.131Z,996.17
2018-09-21T05:23:28.131Z,996.13
2018-09-21T05:24:28.128Z,996.18
2018-09-21T05:25:28.120Z,996.17
2018-09-21T05:26:28.121Z,996.17
2018-09-21T05:27:28.132Z,996.18
2018-09-21T05:28:28.110Z,996.22
2018-09-21T05:29:28.105Z,996.17
2018-09-21T05:30:28.108Z,996.25
2018-09-21T05:31:28.107Z,996.12
2018-09-21T05:32:28.097Z,996.16
2018-09-21T05:33:28.097Z,996.00
2018-09-21T05:34:28.156Z,996.01
2018-09-21T05:35:28.085Z,996.02
2018-09-21T05:36:28.081Z,996.08
2018-09-21T05:37:28.077Z,996.04
2018-09-21T05:38:28.075Z,996.02
2018-09-21T05:39:28.091Z,996.07
2018-09-21T05:40:28.074Z,996.10
2018-09-21T05:41:28.063Z,996.10
2018-09-21T05:42:28.062Z,996.12
2018-09-21T05:43:28.055Z,996.11
2018-09-21T05:44:28.052Z,996.04
2018-09-21T05:45:28.051Z,995.96
2018-09-21T05:46:28.051Z,996.12
2018-09-21T05:47:28.042Z,996.01
2018-09-21T05:48:28.040Z,996.00
2018-09-21T05:49:28.035Z,995.99
2018-09-21T05:50:28.032Z,996.06
2018-09-21T05:51:28.036Z,995.98
2018-09-21T05:52:28.030Z,995.93
2018-09-21T05:53:28.025Z,995.94
2018-09-21T05:54:28.017Z,995.98
2018-09-21T05:55:28.014Z,995.95
2018-09-21T05:56:28.013Z,995.94
2018-09-21T05:57:28.008Z,995.88
2018-09-21T05:58:28.006Z,996.00
2018-09-21T05:59:28.011Z,995.89
2018-09-21T06:00:28.003Z,995.89
2018-09-21T06:01:27.998Z,996.08
2018-09-21T06:02:27.997Z,995.91
2018-09-21T06:03:27.996Z,995.98
2018-09-21T06:04:27.991Z,995.98
2018-09-21T06:05:27.985Z,995.92
2018-09-21T06:06:27.980Z,995.98
2018-09-21T06:07:27.975Z,995.95
2018-09-21T06:08:27.970Z,995.94
2018-09-21T06:09:27.968Z,995.87
2018-09-21T06:10:27.970Z,995.76
2018-09-21T06:11:27.965Z,995.76
2018-09-21T06:12:27.968Z,995.72
2018-09-21T06:13:27.975Z,995.73
2018-09-21T06:14:27.957Z,995.71
2018-09-21T06:15:27.951Z,995.73
2018-09-21T06:16:27.947Z,995.67
2018-09-21T06:17:27.942Z,995.67
2018-09-21T06:18:27.941Z,995.72
2018-09-21T06:19:28.006Z,995.69
2018-09-21T06:20:27.939Z,995.70
2018-09-21T06:21:27.941Z,995.68
2018-09-21T06:22:27.930Z,995.74
2018-09-21T06:23:27.932Z,995.76
2018-09-21T06:24:27.922Z,995.87
2018-09-21T06:25:27.934Z,995.84
2018-09-21T06:26:27.914Z,995.92
2018-09-21T06:27:27.916Z,995.87
2018-09-21T06:28:27.908Z,995.83
2018-09-21T06:29:27.909Z,995.86
2018-09-21T06:30:27.908Z,995.81
2018-09-21T06:31:27.903Z,995.71
2018-09-21T06:32:27.900Z,995.77
2018-09-21T06:33:27.897Z,995.86
2018-09-21T06:34:27.896Z,995.83
2018-09-21T06:35:27.894Z,995.80
2018-09-21T06:36:27.889Z,995.78
2018-09-21T06:37:27.885Z,995.71
2018-09-21T06:38:27.881Z,995.79
2018-09-21T06:39:27.882Z,995.87
2018-09-21T06:40:27.880Z,995.88
2018-09-21T06:41:27.874Z,995.72
2018-09-21T06:42:27.936Z,995.72
2018-09-21T06:43:27.872Z,995.75
2018-09-21T06:44:27.925Z,995.63
2018-09-21T06:45:27.861Z,995.66
2018-09-21T06:46:27.861Z,995.70
2018-09-21T06:47:27.854Z,995.70
2018-09-21T06:48:27.853Z,995.93
2018-09-21T06:49:27.851Z,995.77
2018-09-21T06:50:27.846Z,996.02
2018-09-21T06:51:27.844Z,995.83
2018-09-21T06:52:27.842Z,995.87
2018-09-21T06:53:27.843Z,995.99
2018-09-21T06:54:27.836Z,995.94
2018-09-21T06:55:27.837Z,995.90
2018-09-21T06:56:27.836Z,995.84
2018-09-21T06:57:27.829Z,995.99
2018-09-21T06:58:27.827Z,995.92
2018-09-21T06:59:27.829Z,996.03
2018-09-21T07:00:27.817Z,995.96
2018-09-21T07:01:27.944Z,995.99
2018-09-21T07:02:27.826Z,995.98
2018-09-21T07:03:27.811Z,995.97
2018-09-21T07:04:27.813Z,995.98
2018-09-21T07:05:28.559Z,996.06
2018-09-21T07:06:27.813Z,996.10
2018-09-21T07:07:27.800Z,996.12
2018-09-21T07:08:27.799Z,996.05
2018-09-21T07:09:27.799Z,996.15
2018-09-21T07:10:27.796Z,996.19
2018-09-21T07:11:27.789Z,996.18
2018-09-21T07:12:27.793Z,996.11
2018-09-21T07:13:27.784Z,996.06
2018-09-21T07:14:27.784Z,995.94
2018-09-21T07:15:27.784Z,995.90
2018-09-21T07:16:27.775Z,995.90
2018-09-21T07:17:27.779Z,995.86
2018-09-21T07:18:27.773Z,995.89
2018-09-21T07:19:27.768Z,995.96
2018-09-21T07:20:27.767Z,995.98
2018-09-21T07:21:27.765Z,995.94
2018-09-21T07:22:27.762Z,995.98
2018-09-21T07:23:27.763Z,996.04
2018-09-21T07:24:27.757Z,995.97
2018-09-21T07:25:27.758Z,996.16
2018-09-21T07:26:27.760Z,996.13
2018-09-21T07:27:27.750Z,996.19
2018-09-21T07:28:27.750Z,996.25
2018-09-21T07:29:27.745Z,996.26
2018-09-21T07:30:27.744Z,996.15
2018-09-21T07:31:27.746Z,996.20
2018-09-21T07:32:27.738Z,996.19
2018-09-21T07:33:27.733Z,996.22
2018-09-21T07:34:27.733Z,996.14
2018-09-21T07:35:27.727Z,996.26
2018-09-21T07:36:27.728Z,996.07
2018-09-21T07:37:27.790Z,996.06
2018-09-21T07:38:27.722Z,995.92
2018-09-21T07:39:27.720Z,995.94
2018-09-21T07:40:27.715Z,995.91
2018-09-21T07:41:27.709Z,995.92
2018-09-21T07:42:27.708Z,995.87
2018-09-21T07:43:27.710Z,995.89
2018-09-21T07:44:27.715Z,996.00
2018-09-21T07:45:27.703Z,996.08
2018-09-21T07:46:27.702Z,996.11
2018-09-21T07:47:27.696Z,996.14
2018-09-21T07:48:27.690Z,996.17
2018-09-21T07:49:27.688Z,996.08
2018-09-21T07:50:27.758Z,996.13
2018-09-21T07:51:27.688Z,996.04
2018-09-21T07:52:27.683Z,996.09
2018-09-21T07:53:27.687Z,996.04
2018-09-21T07:54:27.709Z,996.22
2018-09-21T07:55:27.674Z,996.22
2018-09-21T07:56:27.689Z,996.25
2018-09-21T07:57:27.668Z,996.26
2018-09-21T07:58:27.672Z,996.25
2018-09-21T07:59:29.589Z,996.30
2018-09-21T08:00:27.668Z,996.26
2018-09-21T08:01:27.665Z,995.99
2018-09-21T08:02:27.655Z,996.26
2018-09-21T08:03:27.653Z,995.99
2018-09-21T08:04:27.649Z,996.17
2018-09-21T08:05:27.649Z,996.20
2018-09-21T08:06:27.650Z,996.08
2018-09-21T08:07:27.649Z,996.16
2018-09-21T08:08:27.642Z,996.34
2018-09-21T08:09:27.636Z,996.33
2018-09-21T08:10:27.637Z,996.27
2018-09-21T08:11:27.638Z,996.17
2018-09-21T08:12:27.632Z,996.23
2018-09-21T08:13:27.634Z,996.17
2018-09-21T08:14:27.625Z,996.28
2018-09-21T08:15:27.623Z,996.24
2018-09-21T08:16:27.629Z,996.11
2018-09-21T08:17:27.620Z,996.14
2018-09-21T08:18:27.623Z,996.06
2018-09-21T08:19:27.643Z,996.23
2018-09-21T08:20:27.611Z,996.06
2018-09-21T08:21:27.612Z,996.08
2018-09-21T08:22:27.607Z,996.03
2018-09-21T08:23:27.600Z,996.07
2018-09-21T08:24:27.602Z,996.10
2018-09-21T08:25:27.594Z,996.06
2018-09-21T08:26:27.611Z,995.73
2018-09-21T08:27:27.591Z,996.00
2018-09-21T08:28:27.592Z,996.03
2018-09-21T08:29:27.592Z,995.98
2018-09-21T08:30:27.591Z,996.12
2018-09-21T08:31:27.597Z,995.66
2018-09-21T08:32:27.577Z,996.02
2018-09-21T08:33:27.577Z,995.65
2018-09-21T08:34:27.575Z,995.86
2018-09-21T08:35:27.572Z,995.76
2018-09-21T08:36:27.571Z,995.95
2018-09-21T08:37:27.564Z,995.82
2018-09-21T08:38:27.562Z,995.73
2018-09-21T08:39:27.557Z,995.74
2018-09-21T08:40:27.555Z,995.73
2018-09-21T08:41:27.556Z,995.95
2018-09-21T08:42:27.559Z,995.80
2018-09-21T08:43:27.551Z,995.84
2018-09-21T08:44:27.545Z,995.73
2018-09-21T08:45:27.604Z,995.79
2018-09-21T08:46:27.545Z,995.78
2018-09-21T08:47:27.541Z,995.72
2018-09-21T08:48:27.540Z,995.72
2018-09-21T08:49:27.540Z,995.75
2018-09-21T08:50:27.541Z,995.81
2018-09-21T08:51:27.571Z,995.77
2018-09-21T08:52:27.528Z,995.90
2018-09-21T08:53:27.526Z,995.98
2018-09-21T08:54:27.525Z,995.97
2018-09-21T08:55:27.524Z,995.83
2018-09-21T08:56:27.521Z,995.91
2018-09-21T08:57:27.521Z,995.82
2018-09-21T08:58:27.516Z,995.81
2018-09-21T08:59:27.511Z,995.83
2018-09-21T09:00:27.509Z,995.88
2018-09-21T09:01:27.507Z,995.99
2018-09-21T09:02:27.514Z,995.70
2018-09-21T09:03:27.601Z,996.02
2018-09-21T09:04:27.500Z,996.08
2018-09-21T09:05:27.504Z,996.18
2018-09-21T09:06:27.499Z,996.15
2018-09-21T09:07:27.494Z,996.20
2018-09-21T09:08:27.490Z,996.26
2018-09-21T09:09:27.485Z,996.31
2018-09-21T09:10:27.484Z,996.48
2018-09-21T09:11:27.485Z,996.58
2018-09-21T09:12:27.487Z,996.87
2018-09-21T09:13:27.482Z,996.99
2018-09-21T09:14:27.475Z,997.10
2018-09-21T09:15:27.470Z,997.14
2018-09-21T09:16:27.471Z,997.14
2018-09-21T09:17:27.464Z,997.30
2018-09-21T09:18:27.463Z,997.30
2018-09-21T09:19:27.458Z,997.30
2018-09-21T09:20:27.449Z,997.54
2018-09-21T09:21:27.447Z,997.29
2018-09-21T09:22:27.443Z,997.74
2018-09-21T09:23:27.439Z,997.74
2018-09-21T09:24:27.460Z,997.80
2018-09-21T09:25:27.434Z,997.74
2018-09-21T09:26:27.460Z,998.00
2018-09-21T09:27:27.422Z,997.92
2018-09-21T09:28:27.422Z,997.90
2018-09-21T09:29:27.419Z,997.90
2018-09-21T09:30:27.410Z,998.04
2018-09-21T09:31:27.403Z,998.06
2018-09-21T09:32:27.405Z,998.11
2018-09-21T09:33:27.401Z,998.15
2018-09-21T09:34:27.391Z,998.02
2018-09-21T09:35:27.390Z,998.14
2018-09-21T09:36:27.380Z,998.22
2018-09-21T09:37:27.374Z,998.27
2018-09-21T09:38:27.369Z,998.32
2018-09-21T09:39:27.367Z,998.37
2018-09-21T09:40:27.360Z,998.28
2018-09-21T09:41:27.355Z,998.23
2018-09-21T09:42:27.353Z,998.22
2018-09-21T09:43:27.394Z,998.19
2018-09-21T09:44:27.347Z,998.09
2018-09-21T09:45:27.335Z,998.17
2018-09-21T09:46:27.327Z,998.24
2018-09-21T09:47:27.321Z,998.30
2018-09-21T09:48:27.366Z,998.31
2018-09-21T09:49:27.324Z,998.33
2018-09-21T09:50:27.308Z,998.32
2018-09-21T09:51:27.303Z,998.39
2018-09-21T09:52:27.298Z,998.27
2018-09-21T09:53:27.288Z,998.43
2018-09-21T09:54:27.281Z,998.40
2018-09-21T09:55:27.288Z,998.43
2018-09-21T09:56:27.270Z,998.51
2018-09-21T09:57:27.267Z,998.53
2018-09-21T09:58:27.292Z,998.58
2018-09-21T09:59:27.258Z,998.63
2018-09-21T10:00:27.250Z,998.60
2018-09-21T10:01:27.245Z,998.60
2018-09-21T10:02:27.242Z,998.58
2018-09-21T10:03:27.294Z,998.58
2018-09-21T10:04:27.236Z,998.61
2018-09-21T10:05:27.219Z,998.57
2018-09-21T10:06:28.157Z,998.64
2018-09-21T10:07:27.217Z,998.70
2018-09-21T10:08:27.202Z,998.62
2018-09-21T10:09:27.197Z,998.58
2018-09-21T10:10:27.218Z,998.51
2018-09-21T10:11:27.187Z,998.61
2018-09-21T10:12:27.182Z,998.77
2018-09-21T10:13:27.173Z,998.82
2018-09-21T10:14:27.181Z,998.84
2018-09-21T10:15:27.162Z,998.82
2018-09-21T10:16:27.175Z,998.77
2018-09-21T10:17:27.152Z,998.74
2018-09-21T10:18:27.151Z,998.66
2018-09-21T10:19:27.141Z,998.73
2018-09-21T10:20:27.172Z,998.77
2018-09-21T10:21:27.128Z,998.73
2018-09-21T10:22:27.125Z,998.80
2018-09-21T10:23:27.117Z,998.71
2018-09-21T10:24:27.110Z,998.76
2018-09-21T10:25:27.105Z,998.71
2018-09-21T10:26:27.102Z,998.71
2018-09-21T10:27:27.186Z,998.71
2018-09-21T10:28:27.271Z,998.74
2018-09-21T10:29:27.091Z,998.92
2018-09-21T10:30:27.077Z,998.90
2018-09-21T10:31:27.069Z,998.89
2018-09-21T10:32:27.062Z,998.84
2018-09-21T10:33:27.143Z,998.97
2018-09-21T10:34:27.089Z,999.03
2018-09-21T10:35:27.126Z,999.03
2018-09-21T10:36:27.043Z,999.05
2018-09-21T10:37:27.039Z,999.06
2018-09-21T10:38:27.033Z,999.04
2018-09-21T10:39:27.028Z,999.05
2018-09-21T10:40:27.100Z,999.03
2018-09-21T10:41:27.017Z,999.14
2018-09-21T10:42:27.015Z,999.02
2018-09-21T10:43:27.005Z,999.09
2018-09-21T10:44:26.996Z,999.13
2018-09-21T10:45:26.993Z,999.13
2018-09-21T10:46:26.987Z,999.12
2018-09-21T10:47:26.986Z,999.11
2018-09-21T10:48:26.976Z,999.02
2018-09-21T10:49:26.973Z,998.94
2018-09-21T10:50:26.968Z,999.04
2018-09-21T10:51:26.960Z,998.95
2018-09-21T10:52:26.951Z,998.92
2018-09-21T10:53:26.949Z,999.01
2018-09-21T10:54:26.940Z,999.05
2018-09-21T10:55:26.960Z,999.11
2018-09-21T10:56:26.931Z,999.03
2018-09-21T10:57:26.924Z,999.06
2018-09-21T10:58:26.978Z,999.04
2018-09-21T10:59:26.932Z,999.16
2018-09-21T11:00:26.954Z,999.24
2018-09-21T11:01:26.901Z,999.08
2018-09-21T11:02:26.911Z,999.21
2018-09-21T11:03:26.894Z,999.16
2018-09-21T11:04:26.885Z,999.10
2018-09-21T11:05:26.883Z,999.11
2018-09-21T11:06:27.685Z,999.10
2018-09-21T11:07:26.868Z,999.20
2018-09-21T11:08:26.868Z,999.27
2018-09-21T11:09:26.861Z,999.42
2018-09-21T11:10:26.854Z,999.34
2018-09-21T11:11:26.855Z,999.40
2018-09-21T11:12:26.847Z,999.60
2018-09-21T11:13:26.843Z,999.38
2018-09-21T11:14:26.830Z,999.46
2018-09-21T11:15:26.843Z,999.42
2018-09-21T11:16:26.823Z,999.46
2018-09-21T11:17:26.813Z,999.49
2018-09-21T11:18:26.811Z,999.42
2018-09-21T11:19:26.805Z,999.53
2018-09-21T11:20:26.814Z,999.48
2018-09-21T11:21:26.791Z,999.47
2018-09-21T11:22:26.793Z,999.40
2018-09-21T11:23:26.786Z,999.44
2018-09-21T11:24:26.783Z,999.45
2018-09-21T11:25:26.772Z,999.43
2018-09-21T11:26:26.769Z,999.48
2018-09-21T11:27:26.759Z,999.49
2018-09-21T11:28:26.756Z,999.51
2018-09-21T11:29:26.764Z,999.41
2018-09-21T11:30:26.753Z,999.33
2018-09-21T11:31:26.745Z,999.30
2018-09-21T11:32:26.743Z,999.34
2018-09-21T11:33:26.734Z,999.42
2018-09-21T11:34:26.727Z,999.38
2018-09-21T11:35:26.722Z,999.42
2018-09-21T11:36:26.718Z,999.47
2018-09-21T11:37:26.714Z,999.50
2018-09-21T11:38:26.712Z,999.52
2018-09-21T11:39:26.704Z,999.54
2018-09-21T11:40:26.697Z,999.60
2018-09-21T11:41:26.693Z,999.52
2018-09-21T11:42:26.686Z,999.48
2018-09-21T11:43:26.681Z,999.47
2018-09-21T11:44:26.681Z,999.50
2018-09-21T11:45:26.673Z,999.42
2018-09-21T11:46:26.673Z,999.48
2018-09-21T11:47:26.711Z,999.52
2018-09-21T11:48:26.662Z,999.56
2018-09-21T11:49:26.653Z,999.60
2018-09-21T11:50:26.652Z,999.55
2018-09-21T11:51:26.645Z,999.53
2018-09-21T11:52:26.636Z,999.49
2018-09-21T11:53:26.635Z,999.58
2018-09-21T11:54:26.628Z,999.62
2018-09-21T11:55:26.628Z,999.69
2018-09-21T11:56:26.623Z,999.57
2018-09-21T11:57:26.617Z,999.69
2018-09-21T11:58:26.616Z,999.79
2018-09-21T11:59:26.609Z,999.72
2018-09-21T12:00:26.602Z,999.72
2018-09-21T12:01:26.601Z,999.84
2018-09-21T12:02:26.590Z,999.78
2018-09-21T12:03:26.593Z,999.81
2018-09-21T12:04:26.585Z,999.79
2018-09-21T12:05:26.581Z,999.75
2018-09-21T12:06:26.578Z,999.83
2018-09-21T12:07:26.570Z,999.87
2018-09-21T12:08:26.565Z,999.82
2018-09-21T12:09:26.558Z,999.84
2018-09-21T12:10:26.588Z,999.82
2018-09-21T12:11:26.553Z,999.86
2018-09-21T12:12:26.544Z,999.96
2018-09-21T12:13:26.544Z,999.90
2018-09-21T12:14:26.539Z,999.95
2018-09-21T12:15:26.529Z,999.98
2018-09-21T12:16:26.526Z,1000.17
2018-09-21T12:17:26.522Z,1000.14
2018-09-21T12:18:26.518Z,1000.03
2018-09-21T12:19:26.512Z,1000.06
2018-09-21T12:20:26.513Z,999.99
2018-09-21T12:21:26.504Z,1000.08
2018-09-21T12:22:26.499Z,999.96
2018-09-21T12:23:26.493Z,999.95
2018-09-21T12:24:26.490Z,999.95